KGKJ

Port Meadville Airport

Meadville, Pennsylvania, USA
METAR KGKJ 151853Z AUTO 26013G23KT 10SM FEW026 SCT032 BKN040 02/M03 A2964 RMK AO2 PK WND 25029/1816 SLP044 T00171033 TSNO
Observed Flight Rules
Feb-15 @ 18:53 UTC (50 minutes ago) Visual Flight Rules
Wind Visibility Clouds
260° at 13 knots
 Gusting to 23 knots
10 miles
  • Few at 2,600' AGL
  • Scattered at 3,200' AGL
  • Broken at 4,000' AGL
Temperatures Readings
Current 2°C / 36°F
Dewpoint -3°C / 27°F
Humidity 70%
Altimeter 29.64" Hg
Pressure 1004.4 hPa
Elevation 428
METAR KGKJ 151853Z AUTO 26013G23KT 10SM FEW026 SCT032 BKN040 02/M03 A2964 RMK AO2 PK WND 25029/1816 SLP044 T00171033 TSNO
Observed Flight Rules
Feb-15 @ 18:53 UTC
(50 minutes ago)
VFR
Wind Visibility
260° at 13 knots
 Gusting to 23 knots
10 miles
Clouds
  • Few at 2,600' AGL
  • Scattered at 3,200' AGL
  • Broken at 4,000' AGL
Temperature Dewpoint
2°C / 36°F -3°C / 27°F
Humidity Altimeter Pressure
70% 29.64" Hg 1004.4 hPa